createdAt,value
2023-01-22T00:01:33.197Z,25.70
2023-01-22T00:04:02.062Z,26.40
2023-01-22T00:06:31.999Z,26.37
2023-01-22T00:09:03.820Z,26.20
2023-01-22T00:11:33.919Z,25.93
2023-01-22T00:14:02.587Z,27.90
2023-01-22T00:16:31.220Z,25.87
2023-01-22T00:18:59.773Z,25.40
2023-01-22T00:21:28.688Z,24.33
2023-01-22T00:23:57.412Z,23.80
2023-01-22T00:26:26.013Z,26.00
2023-01-22T00:28:56.002Z,26.07
2023-01-22T00:31:24.642Z,25.80
2023-01-22T00:33:53.260Z,27.50
2023-01-22T00:36:23.022Z,25.33
2023-01-22T00:38:52.130Z,25.67
2023-01-22T00:41:21.192Z,27.23
2023-01-22T00:43:52.682Z,28.13
2023-01-22T00:46:22.961Z,26.47
2023-01-22T00:48:51.562Z,26.73
2023-01-22T00:51:20.251Z,27.13
2023-01-22T00:53:48.927Z,25.60
2023-01-22T00:56:17.741Z,25.80
2023-01-22T00:58:46.346Z,26.17
2023-01-22T01:01:15.761Z,25.00
2023-01-22T01:03:45.881Z,23.27
2023-01-22T01:06:16.339Z,25.83
2023-01-22T01:08:45.159Z,26.33
2023-01-22T01:11:14.769Z,27.33
2023-01-22T01:13:43.993Z,22.97
2023-01-22T01:16:13.923Z,26.27
2023-01-22T01:18:42.640Z,27.03
2023-01-22T01:21:12.964Z,25.53
2023-01-22T01:23:42.626Z,25.73
2023-01-22T01:26:12.372Z,24.90
2023-01-22T01:28:41.550Z,25.77
2023-01-22T01:31:12.209Z,24.47
2023-01-22T01:33:41.237Z,23.93
2023-01-22T01:36:12.181Z,26.07
2023-01-22T01:38:42.240Z,24.47
2023-01-22T01:41:12.988Z,25.40
2023-01-22T01:43:41.565Z,23.90
2023-01-22T01:46:15.758Z,25.13
2023-01-22T01:48:46.073Z,23.97
2023-01-22T01:51:16.477Z,24.40
2023-01-22T01:53:47.450Z,24.17
2023-01-22T01:56:18.900Z,25.17
2023-01-22T01:58:47.939Z,24.83
2023-01-22T02:01:17.593Z,24.90
2023-01-22T02:03:46.639Z,25.30
2023-01-22T02:06:16.542Z,26.47
2023-01-22T02:08:47.464Z,23.87
2023-01-22T02:11:16.877Z,25.47
2023-01-22T02:13:47.132Z,23.33
2023-01-22T02:16:15.855Z,24.17
2023-01-22T02:18:44.492Z,26.27
2023-01-22T02:21:27.929Z,23.33
2023-01-22T02:23:57.888Z,24.73
2023-01-22T02:26:26.723Z,24.30
2023-01-22T02:28:55.239Z,23.03
2023-01-22T02:31:23.836Z,25.13
2023-01-22T02:33:52.482Z,23.50
2023-01-22T02:36:21.238Z,21.67
2023-01-22T02:38:49.943Z,23.33
2023-01-22T02:41:19.832Z,21.30
2023-01-22T02:43:48.420Z,22.87
2023-01-22T02:46:17.008Z,21.57
2023-01-22T02:48:45.602Z,21.70
2023-01-22T02:51:14.229Z,21.70
2023-01-22T02:53:42.860Z,20.83
2023-01-22T02:56:12.288Z,21.00
2023-01-22T02:58:42.159Z,21.03
2023-01-22T03:01:20.204Z,19.77
2023-01-22T03:03:49.338Z,21.20
2023-01-22T03:06:21.341Z,20.90
2023-01-22T03:08:50.087Z,20.73
2023-01-22T03:11:18.648Z,20.60
2023-01-22T03:14:06.483Z,20.60
2023-01-22T03:16:52.930Z,20.63
2023-01-22T03:19:39.712Z,18.23
2023-01-22T03:22:08.385Z,19.70
2023-01-22T03:24:37.051Z,18.90
2023-01-22T03:27:06.201Z,21.13
2023-01-22T03:29:38.247Z,20.00
2023-01-22T03:32:07.165Z,19.53
2023-01-22T03:34:36.119Z,19.27
2023-01-22T03:37:04.864Z,20.13
2023-01-22T03:39:33.785Z,19.63
2023-01-22T03:42:02.345Z,17.83
2023-01-22T03:44:30.884Z,18.90
2023-01-22T03:47:00.805Z,19.50
2023-01-22T03:49:29.332Z,19.70
2023-01-22T03:51:57.986Z,20.23
2023-01-22T03:54:26.551Z,21.07
2023-01-22T03:56:55.205Z,20.60
2023-01-22T03:59:23.818Z,21.57
2023-01-22T04:01:53.639Z,20.53
2023-01-22T04:04:23.618Z,18.00
2023-01-22T04:06:52.205Z,19.60
2023-01-22T04:09:20.885Z,21.40
2023-01-22T04:11:49.433Z,19.43
2023-01-22T04:14:18.115Z,22.53
2023-01-22T04:16:46.686Z,19.33
2023-01-22T04:19:15.613Z,21.97
2023-01-22T04:21:45.512Z,19.87
2023-01-22T04:24:14.169Z,18.87
2023-01-22T04:26:42.724Z,22.33
2023-01-22T04:29:11.355Z,20.93
2023-01-22T04:31:40.170Z,23.33
2023-01-22T04:34:08.776Z,20.97
2023-01-22T04:36:37.400Z,19.70
2023-01-22T04:39:07.532Z,20.83
2023-01-22T04:41:36.078Z,23.10
2023-01-22T04:44:04.650Z,22.07
2023-01-22T04:46:33.242Z,19.60
2023-01-22T04:49:01.858Z,20.43
2023-01-22T04:51:30.468Z,21.37
2023-01-22T04:53:59.063Z,18.77
2023-01-22T04:56:28.950Z,21.63
2023-01-22T04:58:57.486Z,23.43
2023-01-22T05:01:26.163Z,20.90
2023-01-22T05:03:54.810Z,21.03
2023-01-22T05:06:23.377Z,22.87
2023-01-22T05:08:51.939Z,20.93
2023-01-22T05:11:20.516Z,20.33
2023-01-22T05:13:50.502Z,20.37
2023-01-22T05:16:19.032Z,19.57
2023-01-22T05:18:47.610Z,17.60
2023-01-22T05:21:16.175Z,22.23
2023-01-22T05:23:44.946Z,20.33
2023-01-22T05:26:13.572Z,21.77
2023-01-22T05:28:42.133Z,20.47
2023-01-22T05:31:12.147Z,19.40
2023-01-22T05:33:41.370Z,20.23
2023-01-22T05:36:12.610Z,19.60
2023-01-22T05:38:41.198Z,19.43
2023-01-22T05:41:09.762Z,19.77
2023-01-22T05:43:38.780Z,19.23
2023-01-22T05:46:07.543Z,19.37
2023-01-22T05:48:37.488Z,20.70
2023-01-22T05:51:06.566Z,20.67
2023-01-22T05:53:35.656Z,19.93
2023-01-22T05:56:04.870Z,20.60
2023-01-22T05:58:33.949Z,20.10
2023-01-22T06:01:02.460Z,18.97
2023-01-22T06:03:31.042Z,19.97
2023-01-22T06:06:01.920Z,20.67
2023-01-22T06:08:31.990Z,19.17
2023-01-22T06:11:02.375Z,19.20
2023-01-22T06:13:31.370Z,20.40
2023-01-22T06:16:00.424Z,19.53
2023-01-22T06:18:29.492Z,19.37
2023-01-22T06:21:00.138Z,19.00
2023-01-22T06:23:30.444Z,21.53
2023-01-22T06:25:59.805Z,20.23
2023-01-22T06:28:28.499Z,19.03
2023-01-22T06:30:58.262Z,20.37
2023-01-22T06:33:26.998Z,21.20
2023-01-22T06:35:56.048Z,21.40
2023-01-22T06:38:24.778Z,20.17
2023-01-22T06:40:55.152Z,20.00
2023-01-22T06:43:23.784Z,20.10
2023-01-22T06:45:52.524Z,20.53
2023-01-22T06:48:21.075Z,18.33
2023-01-22T06:50:49.687Z,17.50
2023-01-22T06:53:18.329Z,19.63
2023-01-22T06:55:46.896Z,20.77
2023-01-22T06:58:18.070Z,17.10
2023-01-22T07:00:46.663Z,17.73
2023-01-22T07:03:15.263Z,17.63
2023-01-22T07:05:43.893Z,21.70
2023-01-22T07:08:15.196Z,17.67
2023-01-22T07:10:43.808Z,18.63
2023-01-22T07:13:14.251Z,19.47
2023-01-22T07:15:44.340Z,17.20
2023-01-22T07:18:14.352Z,20.67
2023-01-22T07:20:43.598Z,19.50
2023-01-22T07:23:12.348Z,17.87
2023-01-22T07:25:40.959Z,18.03
2023-01-22T07:28:09.831Z,21.60
2023-01-22T07:30:40.361Z,17.80
2023-01-22T07:33:12.165Z,18.43
2023-01-22T07:35:40.863Z,18.80
2023-01-22T07:38:09.944Z,19.03
2023-01-22T07:40:38.479Z,18.97
2023-01-22T07:43:07.560Z,18.97
2023-01-22T07:45:36.651Z,20.80
2023-01-22T07:48:07.698Z,20.67
2023-01-22T07:50:40.070Z,19.43
2023-01-22T07:53:08.749Z,20.83
2023-01-22T07:55:37.373Z,21.07
2023-01-22T07:58:06.798Z,20.10
2023-01-22T08:00:36.368Z,20.83
2023-01-22T08:03:05.694Z,18.83
2023-01-22T08:05:34.605Z,20.20
2023-01-22T08:08:04.518Z,18.93
2023-01-22T08:10:33.194Z,19.37
2023-01-22T08:13:01.771Z,18.17
2023-01-22T08:15:31.365Z,18.03
2023-01-22T08:18:00.117Z,20.53
2023-01-22T08:20:28.720Z,18.67
2023-01-22T08:22:59.252Z,17.87
2023-01-22T08:25:29.619Z,18.07
2023-01-22T08:27:58.280Z,19.23
2023-01-22T08:30:26.899Z,16.67
2023-01-22T08:32:55.496Z,17.57
2023-01-22T08:35:24.586Z,19.23
2023-01-22T08:37:53.297Z,17.67
2023-01-22T08:40:21.967Z,17.10
2023-01-22T08:42:53.662Z,18.83
2023-01-22T08:45:22.550Z,19.17
2023-01-22T08:47:51.500Z,16.90
2023-01-22T08:50:20.505Z,16.53
2023-01-22T08:52:49.250Z,19.23
2023-01-22T08:55:17.784Z,18.00
2023-01-22T08:57:46.318Z,18.53
2023-01-22T09:00:17.602Z,17.77
2023-01-22T09:02:46.328Z,17.67
2023-01-22T09:05:14.924Z,17.57
2023-01-22T09:07:43.643Z,17.73
2023-01-22T09:10:13.168Z,18.23
2023-01-22T09:12:41.971Z,16.20
2023-01-22T09:15:10.923Z,16.67
2023-01-22T09:17:42.071Z,17.63
2023-01-22T09:20:11.248Z,17.90
2023-01-22T09:22:39.913Z,16.87
2023-01-22T09:25:08.809Z,16.10
2023-01-22T09:27:37.380Z,19.10
2023-01-22T09:30:06.402Z,17.40
2023-01-22T09:32:37.690Z,17.73
2023-01-22T09:35:08.390Z,17.20
2023-01-22T09:37:37.238Z,15.87
2023-01-22T09:40:06.401Z,14.97
2023-01-22T09:42:40.235Z,16.03
2023-01-22T09:45:11.908Z,16.47
2023-01-22T09:47:47.537Z,16.17
2023-01-22T09:50:20.425Z,16.50
2023-01-22T09:52:51.820Z,16.27
2023-01-22T09:55:22.000Z,17.67
2023-01-22T09:57:52.542Z,17.60
2023-01-22T10:00:22.643Z,15.80
2023-01-22T10:02:54.714Z,17.13
2023-01-22T10:05:31.077Z,17.13
2023-01-22T10:08:02.273Z,14.83
2023-01-22T10:10:31.210Z,16.97
2023-01-22T10:13:02.741Z,17.30
2023-01-22T10:15:31.456Z,16.03
2023-01-22T10:18:00.693Z,17.47
2023-01-22T10:20:31.318Z,17.43
2023-01-22T10:23:01.130Z,17.47
2023-01-22T10:25:30.311Z,16.60
2023-01-22T10:27:59.806Z,18.17
2023-01-22T10:30:30.706Z,16.90
2023-01-22T10:33:00.747Z,16.37
2023-01-22T10:35:32.196Z,16.83
2023-01-22T10:38:01.911Z,18.07
2023-01-22T10:40:31.681Z,16.87
2023-01-22T10:43:07.860Z,16.23
2023-01-22T10:45:36.615Z,16.33
2023-01-22T10:48:06.092Z,17.40
2023-01-22T10:50:36.136Z,17.63
2023-01-22T10:53:05.671Z,16.37
2023-01-22T10:55:36.216Z,16.17
2023-01-22T10:58:07.448Z,16.80
2023-01-22T11:00:50.524Z,16.17
2023-01-22T11:03:22.490Z,14.77
2023-01-22T11:05:55.135Z,16.87
2023-01-22T11:08:25.481Z,17.10
2023-01-22T11:10:56.542Z,19.03
2023-01-22T11:13:26.547Z,17.93
2023-01-22T11:15:57.535Z,16.67
2023-01-22T11:18:30.354Z,16.07
2023-01-22T11:21:01.310Z,15.77
2023-01-22T11:23:35.024Z,16.87
2023-01-22T11:26:11.711Z,16.73
2023-01-22T11:28:43.962Z,16.57
2023-01-22T11:31:25.307Z,17.17
2023-01-22T11:34:06.018Z,16.17
2023-01-22T11:36:38.996Z,17.67
2023-01-22T11:39:11.137Z,17.57
2023-01-22T11:41:57.386Z,17.03
2023-01-22T11:44:30.781Z,16.13
2023-01-22T11:47:08.066Z,16.23
2023-01-22T11:49:41.624Z,19.23
2023-01-22T11:52:19.233Z,16.00
2023-01-22T11:54:54.308Z,15.37
2023-01-22T11:57:26.231Z,15.73
2023-01-22T12:00:05.540Z,16.50
2023-01-22T12:02:44.824Z,16.83
2023-01-22T12:05:16.928Z,17.90
2023-01-22T12:07:56.899Z,16.07
2023-01-22T12:10:34.524Z,19.03
2023-01-22T12:13:07.093Z,17.60
2023-01-22T12:15:41.186Z,20.20
2023-01-22T12:18:20.630Z,18.27
2023-01-22T12:21:07.120Z,18.83
2023-01-22T12:23:39.924Z,18.27
2023-01-22T12:26:11.601Z,19.20
2023-01-22T12:28:43.528Z,18.90
2023-01-22T12:31:14.986Z,18.00
2023-01-22T12:33:44.324Z,17.93
2023-01-22T12:36:16.364Z,17.43
2023-01-22T12:38:48.548Z,20.07
2023-01-22T12:41:22.931Z,19.27
2023-01-22T12:43:53.155Z,18.30
2023-01-22T12:46:26.434Z,19.57
2023-01-22T12:48:59.178Z,17.20
2023-01-22T12:51:29.102Z,19.33
2023-01-22T12:54:09.114Z,18.10
2023-01-22T12:56:37.703Z,18.80
2023-01-22T12:59:06.245Z,19.47
2023-01-22T13:01:36.602Z,18.03
2023-01-22T13:04:06.664Z,17.60
2023-01-22T13:06:36.141Z,18.67
2023-01-22T13:09:07.128Z,18.63
2023-01-22T13:11:37.333Z,19.63
2023-01-22T13:14:15.114Z,18.90
2023-01-22T13:16:51.786Z,17.70
2023-01-22T13:19:21.811Z,20.23
2023-01-22T13:21:50.705Z,18.07
2023-01-22T13:24:21.603Z,17.50
2023-01-22T13:26:56.520Z,18.40
2023-01-22T13:29:27.385Z,18.63
2023-01-22T13:31:56.665Z,18.00
2023-01-22T13:34:25.369Z,20.27
2023-01-22T13:36:54.009Z,19.07
2023-01-22T13:39:26.837Z,17.37
2023-01-22T13:41:56.401Z,18.63
2023-01-22T13:44:26.084Z,19.50
2023-01-22T13:46:55.021Z,18.83
2023-01-22T13:49:24.920Z,18.30
2023-01-22T13:51:53.968Z,18.43
2023-01-22T13:54:26.388Z,19.30
2023-01-22T13:56:55.004Z,17.57
2023-01-22T13:59:25.150Z,20.13
2023-01-22T14:01:53.828Z,18.87
2023-01-22T14:04:27.370Z,18.57
2023-01-22T14:06:56.133Z,20.97
2023-01-22T14:09:30.023Z,20.10
2023-01-22T14:11:58.674Z,20.37
2023-01-22T14:14:27.303Z,19.17
2023-01-22T14:16:55.928Z,18.80
2023-01-22T14:19:24.517Z,21.47
2023-01-22T14:21:53.123Z,21.60
2023-01-22T14:24:21.811Z,17.27
2023-01-22T14:26:51.733Z,19.27
2023-01-22T14:29:20.305Z,19.70
2023-01-22T14:31:48.963Z,21.53
2023-01-22T14:34:17.564Z,19.73
2023-01-22T14:36:48.174Z,20.93
2023-01-22T14:39:18.545Z,19.47
2023-01-22T14:41:47.141Z,19.63
2023-01-22T14:44:17.060Z,20.77
2023-01-22T14:46:45.642Z,21.27
2023-01-22T14:49:14.252Z,21.27
2023-01-22T14:51:42.875Z,23.23
2023-01-22T14:54:11.465Z,22.17
2023-01-22T14:56:40.128Z,20.63
2023-01-22T14:59:08.741Z,20.47
2023-01-22T15:01:39.394Z,21.93
2023-01-22T15:04:08.359Z,21.37
2023-01-22T15:06:36.941Z,23.10
2023-01-22T15:09:05.740Z,21.40
2023-01-22T15:11:34.313Z,19.83
2023-01-22T15:14:05.419Z,19.57
2023-01-22T15:16:34.212Z,18.73
2023-01-22T15:19:04.119Z,20.17
2023-01-22T15:21:32.771Z,18.33
2023-01-22T15:24:02.240Z,21.17
2023-01-22T15:26:33.327Z,21.63
2023-01-22T15:29:01.902Z,22.37
2023-01-22T15:31:30.464Z,21.03
2023-01-22T15:34:02.236Z,21.83
2023-01-22T15:36:32.489Z,21.77
2023-01-22T15:39:01.072Z,24.53
2023-01-22T15:41:30.337Z,19.00
2023-01-22T15:44:01.093Z,20.10
2023-01-22T15:46:30.412Z,21.33
2023-01-22T15:48:59.652Z,20.53
2023-01-22T15:51:28.909Z,27.07
2023-01-22T15:53:59.773Z,20.80
2023-01-22T15:56:29.792Z,22.83
2023-01-22T15:58:58.740Z,21.03
2023-01-22T16:01:28.474Z,22.67
2023-01-22T16:03:57.168Z,24.73
2023-01-22T16:06:27.554Z,23.13
2023-01-22T16:08:57.558Z,23.10
2023-01-22T16:11:28.038Z,22.10
2023-01-22T16:13:56.778Z,24.80
2023-01-22T16:16:26.592Z,22.63
2023-01-22T16:18:55.367Z,26.10
2023-01-22T16:21:24.665Z,21.90
2023-01-22T16:23:54.567Z,20.50
2023-01-22T16:26:24.389Z,22.60
2023-01-22T16:28:55.455Z,24.47
2023-01-22T16:31:25.238Z,22.17
2023-01-22T16:33:55.960Z,25.80
2023-01-22T16:36:25.232Z,26.97
2023-01-22T16:38:54.001Z,23.90
2023-01-22T16:41:27.855Z,23.50
2023-01-22T16:43:59.476Z,26.33
2023-01-22T16:46:29.481Z,22.13
2023-01-22T16:48:58.990Z,25.93
2023-01-22T16:51:28.404Z,24.27
2023-01-22T16:53:57.189Z,25.13
2023-01-22T16:56:25.847Z,26.87
2023-01-22T16:58:54.595Z,26.53
2023-01-22T17:01:24.511Z,24.53
2023-01-22T17:03:53.068Z,27.57
2023-01-22T17:06:26.456Z,26.87
2023-01-22T17:08:55.447Z,27.17
2023-01-22T17:11:24.495Z,28.87
2023-01-22T17:13:53.420Z,28.70
2023-01-22T17:16:22.091Z,27.87
2023-01-22T17:18:52.017Z,25.43
2023-01-22T17:21:20.922Z,31.80
2023-01-22T17:23:49.519Z,30.30
2023-01-22T17:26:18.567Z,28.70
2023-01-22T17:28:47.411Z,27.43
2023-01-22T17:31:17.010Z,33.77
2023-01-22T17:33:46.286Z,33.20
2023-01-22T17:36:18.946Z,29.53
2023-01-22T17:38:47.822Z,27.37
2023-01-22T17:41:17.633Z,34.03
2023-01-22T17:43:47.098Z,33.23
2023-01-22T17:46:16.978Z,30.37
2023-01-22T17:48:46.157Z,28.47
2023-01-22T17:51:18.215Z,32.70
2023-01-22T17:53:47.701Z,31.70
2023-01-22T17:56:18.330Z,29.47
2023-01-22T17:58:50.110Z,31.00
2023-01-22T18:01:19.691Z,28.13
2023-01-22T18:03:48.925Z,29.00
2023-01-22T18:06:19.326Z,28.73
2023-01-22T18:08:47.958Z,29.37
2023-01-22T18:11:17.203Z,30.97
2023-01-22T18:13:46.206Z,31.13
2023-01-22T18:16:16.820Z,33.37
2023-01-22T18:18:45.983Z,31.40
2023-01-22T18:21:16.316Z,33.87
2023-01-22T18:23:47.134Z,31.63
2023-01-22T18:26:16.470Z,30.93
2023-01-22T18:28:45.138Z,30.93
2023-01-22T18:31:15.855Z,31.90
2023-01-22T18:33:45.978Z,34.60
2023-01-22T18:36:15.388Z,35.00
2023-01-22T18:38:44.576Z,35.63
2023-01-22T18:41:15.342Z,31.00
2023-01-22T18:43:44.605Z,34.63
2023-01-22T18:46:14.231Z,35.50
2023-01-22T18:48:43.603Z,33.80
2023-01-22T18:51:13.733Z,34.23
2023-01-22T18:53:42.849Z,34.73
2023-01-22T18:56:12.636Z,32.20
2023-01-22T18:58:44.667Z,30.80
2023-01-22T19:01:14.140Z,33.80
2023-01-22T19:03:44.647Z,33.87
2023-01-22T19:06:14.599Z,31.23
2023-01-22T19:08:44.302Z,30.30
2023-01-22T19:11:13.678Z,31.87
2023-01-22T19:13:45.858Z,31.70
2023-01-22T19:16:15.459Z,31.43
2023-01-22T19:18:46.594Z,31.40
2023-01-22T19:21:16.269Z,33.00
2023-01-22T19:23:45.731Z,33.30
2023-01-22T19:26:15.126Z,31.57
2023-01-22T19:28:45.114Z,31.73
2023-01-22T19:31:17.780Z,34.63
2023-01-22T19:33:46.554Z,33.47
2023-01-22T19:36:15.163Z,32.70
2023-01-22T19:38:44.103Z,34.47
2023-01-22T19:41:12.953Z,35.40
2023-01-22T19:43:41.955Z,35.57
2023-01-22T19:46:13.213Z,35.50
2023-01-22T19:48:42.130Z,34.67
2023-01-22T19:51:11.864Z,42.23
2023-01-22T19:53:40.536Z,39.57
2023-01-22T19:56:16.684Z,42.93
2023-01-22T19:58:45.439Z,34.80
2023-01-22T20:01:15.579Z,37.07
2023-01-22T20:03:44.272Z,33.50
2023-01-22T20:06:13.696Z,33.87
2023-01-22T20:08:42.246Z,35.23
2023-01-22T20:11:11.660Z,34.27
2023-01-22T20:13:40.591Z,38.77
2023-01-22T20:16:17.627Z,34.47
2023-01-22T20:18:47.669Z,38.63
2023-01-22T20:21:16.882Z,34.10
2023-01-22T20:23:46.208Z,33.73
2023-01-22T20:26:15.480Z,28.80
2023-01-22T20:28:44.367Z,33.67
2023-01-22T20:31:14.335Z,33.57
2023-01-22T20:33:43.027Z,35.10
2023-01-22T20:36:15.494Z,31.33
2023-01-22T20:38:45.824Z,34.17
2023-01-22T20:41:14.846Z,31.67
2023-01-22T20:43:44.259Z,33.33
2023-01-22T20:46:13.915Z,38.27
2023-01-22T20:48:42.576Z,38.17
2023-01-22T20:51:15.687Z,33.77
2023-01-22T20:53:44.721Z,35.03
2023-01-22T20:56:14.375Z,35.23
2023-01-22T20:58:42.988Z,33.53
2023-01-22T21:01:14.428Z,36.53
2023-01-22T21:03:43.471Z,36.73
2023-01-22T21:06:14.107Z,33.67
2023-01-22T21:08:44.677Z,34.30
2023-01-22T21:11:17.670Z,35.83
2023-01-22T21:13:46.212Z,34.13
2023-01-22T21:16:15.663Z,39.40
2023-01-22T21:18:46.064Z,37.23
2023-01-22T21:21:17.552Z,31.60
2023-01-22T21:23:48.370Z,35.87
2023-01-22T21:26:19.189Z,35.70
2023-01-22T21:28:48.877Z,32.60
2023-01-22T21:31:18.062Z,33.63
2023-01-22T21:33:47.097Z,35.30
2023-01-22T21:36:18.157Z,31.90
2023-01-22T21:38:48.233Z,30.33
2023-01-22T21:41:17.907Z,33.97
2023-01-22T21:44:04.965Z,35.63
2023-01-22T21:46:34.980Z,35.97
2023-01-22T21:49:16.150Z,34.63
2023-01-22T21:51:45.917Z,37.87
2023-01-22T21:54:16.715Z,35.70
2023-01-22T21:56:45.399Z,38.93
2023-01-22T21:59:14.196Z,35.37
2023-01-22T22:01:43.065Z,36.37
2023-01-22T22:04:12.132Z,37.03
2023-01-22T22:06:41.189Z,36.27
2023-01-22T22:09:10.873Z,38.03
2023-01-22T22:11:40.989Z,35.47
2023-01-22T22:14:10.267Z,34.87
2023-01-22T22:16:39.153Z,33.67
2023-01-22T22:19:07.836Z,36.63
2023-01-22T22:21:36.707Z,36.57
2023-01-22T22:24:05.444Z,35.70
2023-01-22T22:26:34.043Z,32.80
2023-01-22T22:29:04.271Z,31.43
2023-01-22T22:31:32.933Z,35.70
2023-01-22T22:34:01.744Z,33.83
2023-01-22T22:36:31.763Z,38.20
2023-01-22T22:39:01.259Z,32.97
2023-01-22T22:41:30.984Z,35.00
2023-01-22T22:43:59.653Z,37.93
2023-01-22T22:46:30.476Z,35.43
2023-01-22T22:49:00.421Z,37.93
2023-01-22T22:51:30.030Z,36.90
2023-01-22T22:53:59.886Z,34.63
2023-01-22T22:56:29.278Z,33.53
2023-01-22T22:58:59.160Z,34.37
2023-01-22T23:01:28.166Z,35.47
2023-01-22T23:03:58.166Z,37.97
2023-01-22T23:06:27.886Z,39.90
2023-01-22T23:08:56.975Z,40.13
2023-01-22T23:11:26.747Z,42.40
2023-01-22T23:14:01.083Z,39.70
2023-01-22T23:16:30.674Z,35.03
2023-01-22T23:19:01.530Z,36.53
2023-01-22T23:21:30.216Z,37.77
2023-01-22T23:23:58.832Z,37.53
2023-01-22T23:26:29.756Z,32.63
2023-01-22T23:29:00.431Z,37.27
2023-01-22T23:31:29.942Z,36.87
2023-01-22T23:33:59.487Z,35.13
2023-01-22T23:36:30.385Z,35.50
2023-01-22T23:38:58.906Z,36.43
2023-01-22T23:41:27.494Z,34.93
2023-01-22T23:43:56.164Z,33.17
2023-01-22T23:46:25.477Z,32.47
2023-01-22T23:48:54.483Z,38.87
2023-01-22T23:51:23.139Z,34.50
2023-01-22T23:53:53.683Z,34.60
2023-01-22T23:56:23.601Z,35.23
2023-01-22T23:58:54.349Z,33.87
